Time;durP1;ratioP1;P1;durP2;ratioP2;P2;SDS_P1;SDS_P2;PMS_P1;PMS_P2;Temp;Humidity;BMP_temperature;BMP_pressure;BME280_temperature;BME280_humidity;BME280_pressure;Samples;Min_cycle;Max_cycle;Signal;HPM_P1;HPM_P2
2024/02/08 00:00:25;;;;;;;0.50;0.50;;;6.90;99.90;;;;;;2060916;28;20263;-67
2024/02/08 00:01:25;;;;;;;0.70;0.60;;;6.90;99.90;;;;;;2061492;28;20319;-66
2024/02/08 00:02:26;;;;;;;0.70;0.60;;;6.90;99.90;;;;;;2050990;28;20324;-66
2024/02/08 00:03:27;;;;;;;0.63;0.63;;;6.90;99.90;;;;;;2061176;28;20248;-67
2024/02/08 00:04:27;;;;;;;0.50;0.50;;;7.00;99.90;;;;;;2060400;28;20312;-67
2024/02/08 00:05:28;;;;;;;0.83;0.53;;;6.90;99.90;;;;;;2060822;28;20323;-67
2024/02/08 00:06:31;;;;;;;0.70;0.57;;;6.90;99.90;;;;;;2060649;28;20666;-65
2024/02/08 00:07:32;;;;;;;0.50;0.50;;;6.90;99.90;;;;;;2058460;28;20715;-66
2024/02/08 00:08:35;;;;;;;0.60;0.50;;;6.90;99.90;;;;;;2049781;28;20314;-66
2024/02/08 00:09:35;;;;;;;1.45;0.55;;;6.80;99.90;;;;;;2062102;28;20717;-65
2024/02/08 00:10:36;;;;;;;2.23;0.53;;;6.80;99.90;;;;;;2062063;28;20253;-66
2024/02/08 00:11:37;;;;;;;0.50;0.50;;;6.80;99.90;;;;;;2062068;28;20234;-66
2024/02/08 00:12:39;;;;;;;0.60;0.60;;;6.80;99.90;;;;;;2050533;28;20234;-65
2024/02/08 00:13:40;;;;;;;0.60;0.60;;;6.80;99.90;;;;;;2042048;28;20234;-66
2024/02/08 00:14:41;;;;;;;3.87;3.67;;;6.80;99.90;;;;;;2059459;28;20230;-66
2024/02/08 00:15:41;;;;;;;0.60;0.60;;;6.90;99.90;;;;;;2061382;28;20222;-66
2024/02/08 00:16:42;;;;;;;0.60;0.60;;;6.80;99.90;;;;;;2051305;28;20237;-66
2024/02/08 00:17:46;;;;;;;0.63;0.60;;;6.90;99.90;;;;;;2059344;28;20294;-66
2024/02/08 00:18:47;;;;;;;0.60;0.60;;;6.90;99.90;;;;;;2056777;28;20575;-65
2024/02/08 00:19:50;;;;;;;46.43;31.10;;;6.90;99.90;;;;;;2051145;28;20266;-66
2024/02/08 00:20:51;;;;;;;0.40;0.40;;;6.90;99.90;;;;;;2053016;28;20254;-65
2024/02/08 00:21:52;;;;;;;0.98;0.70;;;6.90;99.90;;;;;;2060775;28;20231;-65
2024/02/08 00:22:53;;;;;;;0.93;0.60;;;6.90;99.90;;;;;;2069155;28;20779;-65
2024/02/08 00:23:54;;;;;;;1.63;0.53;;;6.90;99.90;;;;;;2067725;28;20336;-65
2024/02/08 00:24:55;;;;;;;0.60;0.50;;;6.90;99.90;;;;;;2059166;28;20218;-65
2024/02/08 00:25:56;;;;;;;1.05;0.50;;;6.90;99.90;;;;;;2059993;28;20218;-66
2024/02/08 00:26:58;;;;;;;0.77;0.60;;;6.90;99.90;;;;;;2059453;28;20653;-66
2024/02/08 00:27:59;;;;;;;0.73;0.55;;;6.90;99.90;;;;;;2059119;28;20218;-65
2024/02/08 00:29:00;;;;;;;0.60;0.50;;;6.90;99.90;;;;;;2052144;28;20826;-66
2024/02/08 00:30:03;;;;;;;0.50;0.50;;;6.90;99.90;;;;;;2059130;28;20214;-65
2024/02/08 00:31:04;;;;;;;0.50;0.50;;;6.90;99.90;;;;;;2059011;28;20198;-65
2024/02/08 00:32:05;;;;;;;0.50;0.50;;;6.90;99.90;;;;;;2060711;28;20259;-63
2024/02/08 00:33:09;;;;;;;0.60;0.60;;;6.90;99.90;;;;;;2062393;28;20277;-63
2024/02/08 00:34:11;;;;;;;0.55;0.55;;;6.90;99.90;;;;;;2060915;28;20193;-65
2024/02/08 00:35:18;;;;;;;0.70;0.60;;;6.80;99.90;;;;;;2062286;28;20686;-66
2024/02/08 00:36:19;;;;;;;0.32;0.32;;;6.90;99.90;;;;;;2053914;28;20191;-65
2024/02/08 00:37:19;;;;;;;0.83;0.60;;;6.80;99.90;;;;;;2051441;28;20199;-65
2024/02/08 00:38:20;;;;;;;0.53;0.53;;;6.90;99.90;;;;;;2053998;28;20242;-65
2024/02/08 00:39:21;;;;;;;0.70;0.50;;;6.80;99.90;;;;;;2053161;28;20234;-66
2024/02/08 00:40:21;;;;;;;0.50;0.50;;;6.80;99.90;;;;;;2054305;28;20929;-65
2024/02/08 00:41:23;;;;;;;0.50;0.50;;;6.80;99.90;;;;;;2053434;28;20239;-64
2024/02/08 00:42:24;;;;;;;0.50;0.50;;;6.80;99.90;;;;;;2061273;28;20702;-63
2024/02/08 00:43:25;;;;;;;0.93;0.80;;;6.90;99.90;;;;;;2060573;28;20256;-65
2024/02/08 00:44:27;;;;;;;0.60;0.60;;;6.90;99.90;;;;;;2060894;28;21400;-66
2024/02/08 00:45:30;;;;;;;0.75;0.68;;;6.90;99.90;;;;;;2069790;28;20229;-64
2024/02/08 00:46:30;;;;;;;0.93;0.60;;;6.90;99.90;;;;;;2069010;28;20228;-66
2024/02/08 00:47:31;;;;;;;0.90;0.50;;;6.90;99.90;;;;;;2059508;28;20233;-65
2024/02/08 00:48:32;;;;;;;0.60;0.60;;;6.90;99.90;;;;;;2061250;28;20232;-66
2024/02/08 00:49:32;;;;;;;0.70;0.50;;;6.90;99.90;;;;;;2062036;28;20261;-65
2024/02/08 00:50:34;;;;;;;0.60;0.60;;;6.90;99.90;;;;;;2064409;28;20241;-65
2024/02/08 00:51:35;;;;;;;0.45;0.45;;;6.90;99.90;;;;;;2063403;28;20230;-65
2024/02/08 00:52:35;;;;;;;0.70;0.50;;;6.90;99.90;;;;;;2063648;28;20229;-66
2024/02/08 00:53:36;;;;;;;0.40;0.40;;;6.90;99.90;;;;;;2059985;28;20269;-65
2024/02/08 00:54:37;;;;;;;0.60;0.60;;;6.90;99.90;;;;;;2062747;28;20304;-66
2024/02/08 00:55:37;;;;;;;0.50;0.50;;;7.00;99.90;;;;;;2062626;28;20268;-65
2024/02/08 00:56:41;;;;;;;0.50;0.50;;;6.90;99.90;;;;;;2063215;28;20237;-65
2024/02/08 00:57:42;;;;;;;0.47;0.43;;;6.90;99.90;;;;;;2062567;28;20256;-66
2024/02/08 00:58:44;;;;;;;0.68;0.60;;;6.90;99.90;;;;;;2051093;28;20321;-66
2024/02/08 00:59:45;;;;;;;0.60;0.60;;;6.90;99.90;;;;;;2050602;28;20230;-65
2024/02/08 01:00:47;;;;;;;0.43;0.43;;;6.90;99.90;;;;;;2061677;28;20761;-65
2024/02/08 01:01:48;;;;;;;0.60;0.60;;;6.90;99.90;;;;;;2062705;28;20651;-66
2024/02/08 01:02:49;;;;;;;0.50;0.50;;;6.90;99.90;;;;;;2071579;28;20244;-65
2024/02/08 01:03:49;;;;;;;0.47;0.47;;;6.90;99.90;;;;;;2060772;28;20244;-65
2024/02/08 01:04:50;;;;;;;0.50;0.50;;;7.00;99.90;;;;;;2054067;28;20237;-65
2024/02/08 01:05:53;;;;;;;0.40;0.40;;;6.90;99.90;;;;;;2062114;28;20229;-65
2024/02/08 01:06:53;;;;;;;0.40;0.40;;;6.90;99.90;;;;;;2060789;28;20226;-65
2024/02/08 01:07:54;;;;;;;0.43;0.43;;;7.00;99.90;;;;;;2063459;28;20731;-66
2024/02/08 01:08:55;;;;;;;0.40;0.40;;;7.00;99.90;;;;;;2062869;28;20254;-65
2024/02/08 01:09:55;;;;;;;0.40;0.40;;;7.10;99.90;;;;;;2055624;28;20250;-66
2024/02/08 01:10:56;;;;;;;0.40;0.40;;;7.10;99.90;;;;;;2059442;28;20249;-65
2024/02/08 01:11:57;;;;;;;0.30;0.30;;;7.10;99.90;;;;;;2060593;28;20276;-65
2024/02/08 01:12:59;;;;;;;0.77;0.40;;;7.10;99.90;;;;;;2063175;28;20271;-66
2024/02/08 01:14:02;;;;;;;0.32;0.30;;;7.10;99.90;;;;;;2063466;28;20607;-65
2024/02/08 01:15:04;;;;;;;0.40;0.40;;;7.10;99.90;;;;;;2061953;28;20235;-65
2024/02/08 01:16:05;;;;;;;0.40;0.40;;;7.10;99.90;;;;;;2062775;28;20840;-65
2024/02/08 01:17:06;;;;;;;0.40;0.40;;;7.00;99.90;;;;;;2062691;28;20732;-65
2024/02/08 01:18:06;;;;;;;0.40;0.40;;;7.00;99.90;;;;;;2063135;28;20199;-63
2024/02/08 01:19:07;;;;;;;0.40;0.40;;;7.00;99.90;;;;;;2060753;28;20240;-66
2024/02/08 01:20:09;;;;;;;0.40;0.40;;;7.00;99.90;;;;;;2063325;28;20222;-66
2024/02/08 01:21:10;;;;;;;0.85;0.60;;;7.00;99.90;;;;;;2062112;28;20400;-66
2024/02/08 01:22:19;;;;;;;0.40;0.40;;;7.10;99.90;;;;;;2063006;28;20193;-66
2024/02/08 01:23:22;;;;;;;0.30;0.30;;;7.00;99.90;;;;;;2068163;28;21087;-65
2024/02/08 01:24:24;;;;;;;0.50;0.50;;;7.00;99.90;;;;;;2069518;28;20636;-64
2024/02/08 01:25:25;;;;;;;0.40;0.40;;;7.00;99.90;;;;;;2061246;28;20230;-64
2024/02/08 01:26:25;;;;;;;0.23;0.23;;;7.00;99.90;;;;;;2054060;28;20233;-65
2024/02/08 01:27:26;;;;;;;0.40;0.40;;;7.00;99.90;;;;;;2062655;28;20637;-65
2024/02/08 01:28:27;;;;;;;0.30;0.30;;;7.00;99.90;;;;;;2064229;28;20257;-64
2024/02/08 01:29:27;;;;;;;0.40;0.40;;;7.00;99.90;;;;;;2063349;28;20279;-65
2024/02/08 01:30:28;;;;;;;0.40;0.40;;;7.00;99.90;;;;;;2060879;28;20228;-66
2024/02/08 01:31:30;;;;;;;0.40;0.40;;;7.00;99.90;;;;;;2062551;28;20230;-65
2024/02/08 01:32:31;;;;;;;0.50;0.50;;;6.90;99.90;;;;;;2063297;28;20597;-65
2024/02/08 01:33:36;;;;;;;0.50;0.50;;;7.00;99.90;;;;;;2062756;28;20313;-65
2024/02/08 01:34:36;;;;;;;0.30;0.30;;;6.90;99.90;;;;;;2054307;28;20345;-66
2024/02/08 01:35:39;;;;;;;0.30;0.30;;;7.00;99.90;;;;;;2064007;28;20230;-65
2024/02/08 01:36:40;;;;;;;0.38;0.38;;;7.00;99.90;;;;;;2062565;28;20237;-65
2024/02/08 01:37:41;;;;;;;0.40;0.40;;;7.00;99.90;;;;;;2063427;28;20670;-64
2024/02/08 01:38:42;;;;;;;0.40;0.40;;;7.00;99.90;;;;;;2062636;28;20587;-65
2024/02/08 01:39:43;;;;;;;0.43;0.43;;;7.00;99.90;;;;;;2060618;28;20252;-66
2024/02/08 01:40:44;;;;;;;0.40;0.40;;;7.00;99.90;;;;;;2062502;28;20222;-66
2024/02/08 01:41:45;;;;;;;0.43;0.43;;;7.00;99.90;;;;;;2062285;28;20694;-65
2024/02/08 01:42:46;;;;;;;1.13;0.50;;;7.00;99.90;;;;;;2062995;28;20255;-65
2024/02/08 01:43:47;;;;;;;0.40;0.40;;;7.00;99.90;;;;;;2064778;28;20234;-65
2024/02/08 01:44:48;;;;;;;0.30;0.30;;;7.10;99.90;;;;;;2061894;28;20245;-65
2024/02/08 01:45:49;;;;;;;0.55;0.55;;;7.10;99.90;;;;;;2054726;28;20230;-65
2024/02/08 01:46:50;;;;;;;0.30;0.30;;;7.00;99.90;;;;;;2063214;28;20307;-65
2024/02/08 01:47:51;;;;;;;0.37;0.37;;;7.00;99.90;;;;;;2061247;28;20264;-65
2024/02/08 01:48:53;;;;;;;0.40;0.40;;;7.00;99.90;;;;;;2070729;28;20237;-65
2024/02/08 01:49:54;;;;;;;0.35;0.35;;;6.90;99.90;;;;;;2063320;28;20480;-65
2024/02/08 01:51:00;;;;;;;1.73;0.40;;;7.00;99.90;;;;;;2054411;28;20230;-66
2024/02/08 01:52:01;;;;;;;0.40;0.40;;;7.00;99.90;;;;;;2053468;28;20237;-66
2024/02/08 01:53:13;;;;;;;0.70;0.50;;;6.90;99.90;;;;;;2052970;28;20262;-65
2024/02/08 01:54:15;;;;;;;0.50;0.50;;;6.90;99.90;;;;;;2042776;28;20206;-65
2024/02/08 01:55:16;;;;;;;0.60;0.60;;;7.00;99.90;;;;;;2039288;28;20196;-64
2024/02/08 01:56:17;;;;;;;1.10;0.57;;;7.00;99.90;;;;;;2053565;28;20737;-66
2024/02/08 01:57:18;;;;;;;0.50;0.50;;;7.00;99.90;;;;;;2048232;28;20202;-68
2024/02/08 01:58:21;;;;;;;0.47;0.47;;;6.90;99.90;;;;;;2043635;28;20272;-65
2024/02/08 01:59:23;;;;;;;0.60;0.57;;;7.00;99.90;;;;;;2058613;28;20637;-64
2024/02/08 02:00:23;;;;;;;0.50;0.50;;;7.00;99.90;;;;;;2060765;28;20241;-64
2024/02/08 02:01:25;;;;;;;0.50;0.50;;;7.00;99.90;;;;;;2049431;28;20234;-65
2024/02/08 02:02:28;;;;;;;0.40;0.40;;;6.90;99.90;;;;;;2043460;28;20235;-65
2024/02/08 02:03:31;;;;;;;0.98;0.60;;;6.90;99.90;;;;;;2061050;28;20237;-65
2024/02/08 02:04:32;;;;;;;0.40;0.40;;;7.00;99.90;;;;;;2054885;28;20314;-64
2024/02/08 02:05:33;;;;;;;0.40;0.40;;;7.00;99.90;;;;;;2061522;28;20225;-65
2024/02/08 02:06:35;;;;;;;0.33;0.33;;;7.00;99.90;;;;;;2060993;28;20245;-63
2024/02/08 02:07:35;;;;;;;0.43;0.43;;;7.00;99.90;;;;;;2060376;28;20276;-63
2024/02/08 02:08:38;;;;;;;0.77;0.50;;;6.90;99.90;;;;;;2058738;28;20234;-64
2024/02/08 02:09:39;;;;;;;0.40;0.40;;;7.00;99.90;;;;;;2059453;28;20280;-65
2024/02/08 02:10:41;;;;;;;0.40;0.40;;;7.10;99.90;;;;;;2051491;28;20247;-64
2024/02/08 02:11:49;;;;;;;0.50;0.40;;;7.10;99.90;;;;;;2045452;28;20235;-67
2024/02/08 02:12:50;;;;;;;0.40;0.40;;;7.10;99.90;;;;;;2053384;28;20235;-65
2024/02/08 02:13:51;;;;;;;0.30;0.30;;;7.10;99.90;;;;;;2052057;28;20235;-65
2024/02/08 02:14:53;;;;;;;0.40;0.40;;;7.10;99.90;;;;;;2052434;28;20234;-65
2024/02/08 02:15:54;;;;;;;0.30;0.30;;;7.10;99.90;;;;;;2048634;28;20369;-66
2024/02/08 02:17:18;;;;;;;0.30;0.30;;;7.20;99.90;;;;;;2053558;28;20294;-66
2024/02/08 02:18:19;;;;;;;0.32;0.32;;;7.10;99.90;;;;;;2049654;28;20486;-66
2024/02/08 02:19:20;;;;;;;0.40;0.40;;;7.10;99.90;;;;;;2051853;28;20191;-65
2024/02/08 02:20:24;;;;;;;0.40;0.40;;;7.10;99.90;;;;;;2059932;28;20225;-65
2024/02/08 02:21:27;;;;;;;0.40;0.40;;;7.10;99.90;;;;;;2061757;28;20321;-66
2024/02/08 02:22:31;;;;;;;0.50;0.50;;;7.10;99.90;;;;;;2061229;28;20234;-66
2024/02/08 02:23:32;;;;;;;0.98;0.40;;;7.10;99.90;;;;;;2045398;28;20245;-65
2024/02/08 02:24:40;;;;;;;0.30;0.30;;;7.00;99.90;;;;;;2050810;28;20254;-66
2024/02/08 02:25:40;;;;;;;0.30;0.30;;;7.00;99.90;;;;;;2050276;28;20287;-66
2024/02/08 02:26:42;;;;;;;0.30;0.30;;;7.00;99.90;;;;;;2042945;28;20614;-66
2024/02/08 02:27:43;;;;;;;0.40;0.40;;;7.00;99.90;;;;;;2043011;28;20312;-66
2024/02/08 02:28:44;;;;;;;0.23;0.23;;;7.00;99.90;;;;;;2050821;28;20349;-65
2024/02/08 02:29:45;;;;;;;0.40;0.40;;;6.90;99.90;;;;;;2061095;28;20268;-66
2024/02/08 02:30:48;;;;;;;0.43;0.43;;;6.90;99.90;;;;;;2052950;28;20234;-64
2024/02/08 02:31:50;;;;;;;0.40;0.40;;;7.00;99.90;;;;;;2061080;28;20257;-65
2024/02/08 02:32:54;;;;;;;0.47;0.47;;;7.00;99.90;;;;;;2061297;28;20234;-64
2024/02/08 02:33:55;;;;;;;0.40;0.40;;;7.00;99.90;;;;;;2058382;28;20224;-65
2024/02/08 02:34:57;;;;;;;0.40;0.40;;;7.00;99.90;;;;;;2061081;28;20224;-65
2024/02/08 02:35:57;;;;;;;1.33;0.70;;;7.00;99.90;;;;;;2061394;28;20229;-65
2024/02/08 02:36:59;;;;;;;0.43;0.43;;;7.00;99.90;;;;;;2052577;28;20318;-64
2024/02/08 02:38:01;;;;;;;0.40;0.40;;;7.00;99.90;;;;;;2053061;28;20262;-66
2024/02/08 02:39:05;;;;;;;0.40;0.40;;;7.00;99.90;;;;;;2046532;28;20684;-64
2024/02/08 02:40:06;;;;;;;0.50;0.50;;;7.10;99.90;;;;;;2056914;28;20689;-65
2024/02/08 02:41:07;;;;;;;0.85;0.60;;;7.10;99.90;;;;;;2058131;28;20193;-65
2024/02/08 02:42:08;;;;;;;0.47;0.47;;;7.00;99.90;;;;;;2059753;28;20190;-64
2024/02/08 02:43:09;;;;;;;0.60;0.60;;;7.00;99.90;;;;;;2056752;28;20661;-64
2024/02/08 02:44:10;;;;;;;0.60;0.60;;;7.00;99.90;;;;;;2059257;28;20193;-64
2024/02/08 02:45:13;;;;;;;0.50;0.50;;;7.00;99.90;;;;;;2069111;28;20201;-66
2024/02/08 02:46:13;;;;;;;0.50;0.50;;;7.00;99.90;;;;;;2053090;28;20186;-69
2024/02/08 02:47:14;;;;;;;0.50;0.50;;;7.00;99.90;;;;;;2053130;28;20578;-65
2024/02/08 02:48:15;;;;;;;0.40;0.40;;;7.00;99.90;;;;;;2061075;28;20205;-67
2024/02/08 02:49:21;;;;;;;0.60;0.60;;;7.00;99.90;;;;;;2060561;28;20201;-66
2024/02/08 02:50:22;;;;;;;0.50;0.50;;;7.00;99.90;;;;;;2059089;28;20238;-66
2024/02/08 02:51:26;;;;;;;0.40;0.40;;;7.10;99.90;;;;;;2051332;28;20707;-66
2024/02/08 02:52:27;;;;;;;0.50;0.50;;;7.10;99.90;;;;;;2060708;28;20280;-66
2024/02/08 02:53:30;;;;;;;0.80;0.53;;;7.10;99.90;;;;;;2058418;28;20233;-66
2024/02/08 02:54:31;;;;;;;0.85;0.70;;;7.00;99.90;;;;;;2061152;28;20240;-67
2024/02/08 02:55:32;;;;;;;0.63;0.63;;;7.10;99.90;;;;;;2057189;28;20236;-67
2024/02/08 02:56:32;;;;;;;0.67;0.50;;;7.10;99.90;;;;;;2046582;28;20642;-67
2024/02/08 02:57:35;;;;;;;0.40;0.40;;;7.10;99.90;;;;;;2044405;28;20234;-67
2024/02/08 02:58:36;;;;;;;0.40;0.40;;;7.10;99.90;;;;;;2049261;28;20302;-65
2024/02/08 02:59:37;;;;;;;0.90;0.53;;;7.10;99.90;;;;;;2058818;28;20232;-66
2024/02/08 03:00:38;;;;;;;0.50;0.50;;;7.10;99.90;;;;;;2061308;28;20587;-67
2024/02/08 03:01:42;;;;;;;0.40;0.40;;;7.10;99.90;;;;;;2062169;28;20427;-66
2024/02/08 03:02:43;;;;;;;0.35;0.35;;;7.20;99.90;;;;;;2061236;28;20713;-67
2024/02/08 03:03:47;;;;;;;0.43;0.40;;;7.20;99.90;;;;;;2060120;28;20241;-66
2024/02/08 03:04:49;;;;;;;0.40;0.40;;;7.20;99.90;;;;;;2059548;28;20289;-66
2024/02/08 03:05:49;;;;;;;0.30;0.30;;;7.20;99.90;;;;;;2058980;28;20283;-66
2024/02/08 03:06:53;;;;;;;0.40;0.40;;;7.20;99.90;;;;;;2057874;28;20237;-66
2024/02/08 03:07:53;;;;;;;0.88;0.55;;;7.10;99.90;;;;;;2058483;28;20723;-66
2024/02/08 03:08:57;;;;;;;0.53;0.53;;;7.10;99.90;;;;;;2053069;28;20324;-66
2024/02/08 03:09:58;;;;;;;0.40;0.40;;;7.20;99.90;;;;;;2057489;28;20233;-66
2024/02/08 03:10:59;;;;;;;0.53;0.50;;;7.20;99.90;;;;;;2058425;28;20320;-66
2024/02/08 03:11:59;;;;;;;0.40;0.40;;;7.20;99.90;;;;;;2061466;28;20296;-66
2024/02/08 03:13:00;;;;;;;0.40;0.40;;;7.20;99.90;;;;;;2060263;28;20237;-66
2024/02/08 03:14:04;;;;;;;0.50;0.50;;;7.20;99.90;;;;;;2058978;28;20254;-66
2024/02/08 03:15:09;;;;;;;0.40;0.40;;;7.10;99.90;;;;;;2068692;28;20192;-65
2024/02/08 03:16:10;;;;;;;0.40;0.40;;;7.10;99.90;;;;;;2056108;28;20256;-66
2024/02/08 03:17:12;;;;;;;0.60;0.60;;;7.10;99.90;;;;;;2052270;28;20195;-66
2024/02/08 03:18:14;;;;;;;0.40;0.40;;;7.10;99.90;;;;;;2057279;28;20207;-66
2024/02/08 03:19:15;;;;;;;0.65;0.60;;;7.00;99.90;;;;;;2057822;28;20243;-65
2024/02/08 03:20:17;;;;;;;0.40;0.40;;;7.00;99.90;;;;;;2056021;28;20193;-67
2024/02/08 03:21:17;;;;;;;0.50;0.50;;;7.00;99.90;;;;;;2059970;28;20181;-66
2024/02/08 03:22:18;;;;;;;0.50;0.50;;;7.00;99.90;;;;;;2049221;28;20185;-66
2024/02/08 03:23:24;;;;;;;0.47;0.47;;;7.00;99.90;;;;;;2058134;28;20293;-65
2024/02/08 03:24:34;;;;;;;0.45;0.45;;;7.00;99.90;;;;;;2060493;28;20287;-66
2024/02/08 03:25:40;;;;;;;1.13;0.55;;;7.10;99.90;;;;;;2051742;28;20222;-66
2024/02/08 03:26:40;;;;;;;0.65;0.52;;;7.10;99.90;;;;;;2050636;28;20234;-67
2024/02/08 03:27:44;;;;;;;0.63;0.50;;;7.00;99.90;;;;;;2055565;28;20698;-65
2024/02/08 03:28:46;;;;;;;0.50;0.50;;;7.10;99.90;;;;;;2057559;28;20257;-66
2024/02/08 03:29:53;;;;;;;0.50;0.50;;;7.00;99.90;;;;;;2051482;28;20226;-66
2024/02/08 03:30:55;;;;;;;0.50;0.50;;;7.20;99.90;;;;;;2059877;28;20229;-66
2024/02/08 03:31:56;;;;;;;0.50;0.50;;;7.10;99.90;;;;;;2059694;28;20225;-66
2024/02/08 03:32:58;;;;;;;0.60;0.60;;;7.10;99.90;;;;;;2052771;28;20257;-66
2024/02/08 03:33:59;;;;;;;0.40;0.40;;;7.10;99.90;;;;;;2052411;28;20233;-65
2024/02/08 03:35:00;;;;;;;0.40;0.40;;;7.10;99.90;;;;;;2059370;28;20267;-66
2024/02/08 03:36:06;;;;;;;0.50;0.40;;;7.10;99.90;;;;;;2056982;28;20627;-66
2024/02/08 03:37:07;;;;;;;0.43;0.43;;;7.10;99.90;;;;;;2058481;28;20226;-65
2024/02/08 03:38:08;;;;;;;0.37;0.30;;;7.10;99.90;;;;;;2061226;28;20203;-66
2024/02/08 03:39:13;;;;;;;0.50;0.50;;;7.10;99.90;;;;;;2044682;28;20801;-64
2024/02/08 03:40:20;;;;;;;0.40;0.40;;;7.10;99.90;;;;;;2054773;28;20196;-66
2024/02/08 03:41:21;;;;;;;0.45;0.45;;;7.10;99.90;;;;;;2060927;28;20237;-65
2024/02/08 03:42:22;;;;;;;0.40;0.40;;;7.10;99.90;;;;;;2053403;28;20260;-65
2024/02/08 03:43:23;;;;;;;0.40;0.40;;;7.10;99.90;;;;;;2044847;28;20242;-66
2024/02/08 03:44:25;;;;;;;0.40;0.40;;;7.10;99.90;;;;;;2043951;28;20300;-66
2024/02/08 03:45:28;;;;;;;0.60;0.60;;;7.10;99.90;;;;;;2061550;28;20808;-66
2024/02/08 03:46:29;;;;;;;0.40;0.40;;;7.10;99.90;;;;;;2065795;28;20237;-66
2024/02/08 03:47:32;;;;;;;0.40;0.40;;;7.20;99.90;;;;;;2061548;28;20234;-66
2024/02/08 03:48:33;;;;;;;0.40;0.40;;;7.20;99.90;;;;;;2060727;28;20229;-66
2024/02/08 03:49:49;;;;;;;0.40;0.40;;;7.20;99.90;;;;;;2061013;28;20619;-65
2024/02/08 03:50:50;;;;;;;0.40;0.40;;;7.20;99.90;;;;;;2049615;28;20265;-66
2024/02/08 03:51:52;;;;;;;0.37;0.37;;;7.10;99.90;;;;;;2052399;28;20328;-66
2024/02/08 03:52:53;;;;;;;1.80;0.65;;;7.20;99.90;;;;;;2052574;28;20609;-64
2024/02/08 03:53:54;;;;;;;0.43;0.43;;;7.10;99.90;;;;;;2052468;28;20233;-66
2024/02/08 03:54:54;;;;;;;1.30;0.40;;;7.20;99.90;;;;;;2059370;28;20239;-66
2024/02/08 03:55:55;;;;;;;0.43;0.43;;;7.20;99.90;;;;;;2056947;28;20229;-66
2024/02/08 03:56:59;;;;;;;0.60;0.50;;;7.20;99.90;;;;;;2059171;28;21065;-66
2024/02/08 03:58:00;;;;;;;0.40;0.40;;;7.20;99.90;;;;;;2058447;28;20698;-66
2024/02/08 03:59:07;;;;;;;0.30;0.30;;;7.20;99.90;;;;;;2058270;28;20720;-66
2024/02/08 04:00:13;;;;;;;0.30;0.30;;;7.20;99.90;;;;;;2048984;28;20728;-66
2024/02/08 04:01:15;;;;;;;0.30;0.30;;;7.20;99.90;;;;;;2051082;28;20271;-66
2024/02/08 04:02:18;;;;;;;1.20;0.50;;;7.20;99.90;;;;;;2061266;28;20178;-65
2024/02/08 04:03:52;;;;;;;0.40;0.40;;;7.20;99.90;;;;;;2060325;28;20293;-66
2024/02/08 04:04:53;;;;;;;0.40;0.40;;;7.20;99.90;;;;;;2053579;28;20307;-65
2024/02/08 04:09:34;;;;;;;0.47;0.47;;;7.10;99.90;;;;;;2056468;28;20311;-66
2024/02/08 04:54:52;;;;;;;0.60;0.60;;;7.30;99.90;;;;;;2052826;28;20698;-65
2024/02/08 04:55:53;;;;;;;1.43;0.60;;;7.30;99.90;;;;;;2050361;28;20242;-66
2024/02/08 04:56:56;;;;;;;0.77;0.60;;;7.40;99.90;;;;;;2050238;28;20758;-66
2024/02/08 04:57:57;;;;;;;0.55;0.50;;;7.40;99.90;;;;;;2045324;28;20739;-66
2024/02/08 04:58:58;;;;;;;0.53;0.53;;;7.40;99.90;;;;;;2037170;29;20251;-66
2024/02/08 04:59:59;;;;;;;0.82;0.70;;;7.40;99.90;;;;;;2045017;28;20730;-65
2024/02/08 05:01:03;;;;;;;1.13;0.60;;;7.50;99.90;;;;;;2060824;28;20234;-66
2024/02/08 05:02:06;;;;;;;1.55;0.55;;;7.50;99.90;;;;;;2057622;28;20271;-67
2024/02/08 05:03:06;;;;;;;0.90;0.90;;;7.50;99.90;;;;;;2058629;28;20194;-65
2024/02/08 05:04:07;;;;;;;0.70;0.70;;;7.40;99.90;;;;;;2061260;28;20199;-65
2024/02/08 05:05:11;;;;;;;0.50;0.50;;;7.50;99.90;;;;;;2059105;28;20256;-66
2024/02/08 05:06:18;;;;;;;0.50;0.50;;;7.50;99.90;;;;;;2056975;28;20276;-66
2024/02/08 05:07:19;;;;;;;0.47;0.47;;;7.40;99.90;;;;;;2055311;28;20281;-66
2024/02/08 05:08:21;;;;;;;0.53;0.50;;;7.40;99.90;;;;;;2055657;28;20191;-65
2024/02/08 05:09:22;;;;;;;0.50;0.50;;;7.40;99.90;;;;;;2062306;28;20333;-66
2024/02/08 05:10:27;;;;;;;0.40;0.40;;;7.40;99.90;;;;;;2051239;28;20269;-65
2024/02/08 05:11:29;;;;;;;1.45;0.90;;;7.30;99.90;;;;;;2057539;28;20800;-66
2024/02/08 05:12:30;;;;;;;0.47;0.47;;;7.30;99.90;;;;;;2057397;28;20695;-65
2024/02/08 05:13:30;;;;;;;0.43;0.43;;;7.30;99.90;;;;;;2053828;28;20240;-65
2024/02/08 05:14:35;;;;;;;0.43;0.43;;;7.30;99.90;;;;;;2056441;28;20229;-65
2024/02/08 05:15:35;;;;;;;0.50;0.50;;;7.30;99.90;;;;;;2058140;28;20230;-66
2024/02/08 05:16:37;;;;;;;0.40;0.40;;;7.30;99.90;;;;;;2057066;28;20250;-65
2024/02/08 05:17:38;;;;;;;0.63;0.63;;;7.40;99.90;;;;;;2053345;28;20299;-66
2024/02/08 05:18:41;;;;;;;0.43;0.43;;;7.30;99.90;;;;;;2053977;28;20292;-65
2024/02/08 05:19:43;;;;;;;0.68;0.68;;;7.30;99.90;;;;;;2059088;28;20224;-66
2024/02/08 05:20:48;;;;;;;0.52;0.52;;;7.40;99.90;;;;;;2058962;28;20226;-66
2024/02/08 05:21:58;;;;;;;0.60;0.60;;;7.40;99.90;;;;;;2062180;28;20609;-66
2024/02/08 05:23:00;;;;;;;0.50;0.50;;;7.40;99.90;;;;;;2055487;28;20222;-64
2024/02/08 05:24:01;;;;;;;0.50;0.50;;;7.40;99.90;;;;;;2057090;28;20230;-65
2024/02/08 05:25:02;;;;;;;0.60;0.60;;;7.50;99.90;;;;;;2065310;28;20699;-66
2024/02/08 05:26:02;;;;;;;0.50;0.50;;;7.50;99.90;;;;;;2056465;28;20710;-66
2024/02/08 05:27:03;;;;;;;0.60;0.60;;;7.50;99.90;;;;;;2061692;28;20297;-65
2024/02/08 05:28:04;;;;;;;0.50;0.50;;;7.50;99.90;;;;;;2046063;28;20183;-65
2024/02/08 05:29:05;;;;;;;1.90;0.60;;;7.50;99.90;;;;;;2050310;28;20651;-64
2024/02/08 05:30:06;;;;;;;0.40;0.40;;;7.40;99.90;;;;;;2061809;28;20182;-66
2024/02/08 05:31:08;;;;;;;0.60;0.60;;;7.50;99.90;;;;;;2060508;28;20234;-65
2024/02/08 05:32:09;;;;;;;0.60;0.60;;;7.40;99.90;;;;;;2064060;28;20183;-66
2024/02/08 05:33:11;;;;;;;0.43;0.43;;;7.40;99.90;;;;;;2048978;28;20219;-66
2024/02/08 05:34:13;;;;;;;0.60;0.60;;;7.40;99.90;;;;;;2043662;28;20167;-65
2024/02/08 05:35:19;;;;;;;0.52;0.45;;;7.40;99.90;;;;;;2045914;28;20298;-66
2024/02/08 05:36:20;;;;;;;0.50;0.50;;;7.40;99.90;;;;;;2053449;28;20221;-65
2024/02/08 05:37:25;;;;;;;0.50;0.50;;;7.40;99.90;;;;;;2060034;28;20183;-66
2024/02/08 05:38:26;;;;;;;0.40;0.40;;;7.30;99.90;;;;;;2057408;28;20269;-65
2024/02/08 05:39:28;;;;;;;0.40;0.40;;;7.30;99.90;;;;;;2048789;28;20239;-66
2024/02/08 05:40:31;;;;;;;0.50;0.50;;;7.40;99.90;;;;;;2053551;28;20262;-66
2024/02/08 05:41:33;;;;;;;0.70;0.47;;;7.40;99.90;;;;;;2052010;28;20285;-65
2024/02/08 05:42:36;;;;;;;0.50;0.50;;;7.40;99.90;;;;;;2056845;28;20230;-66
2024/02/08 05:43:47;;;;;;;0.40;0.40;;;7.40;99.90;;;;;;2060305;28;20244;-66
2024/02/08 05:44:48;;;;;;;0.50;0.50;;;7.30;99.90;;;;;;2053956;28;20230;-66
2024/02/08 05:45:51;;;;;;;0.60;0.60;;;7.30;99.90;;;;;;2058851;28;20221;-66
2024/02/08 05:46:54;;;;;;;0.50;0.50;;;7.30;99.90;;;;;;2062094;28;20234;-67
2024/02/08 05:47:55;;;;;;;0.50;0.50;;;7.30;99.90;;;;;;2057261;28;20234;-64
2024/02/08 05:49:11;;;;;;;0.57;0.57;;;7.30;99.90;;;;;;2049980;28;20317;-66
2024/02/08 05:50:21;;;;;;;2.42;1.45;;;7.30;99.90;;;;;;2042956;28;20254;-66
2024/02/08 05:51:25;;;;;;;1.05;0.95;;;7.30;99.90;;;;;;2047461;28;20728;-66
2024/02/08 05:52:31;;;;;;;0.80;0.70;;;7.40;99.90;;;;;;2055927;28;20297;-66
2024/02/08 05:53:32;;;;;;;2.70;1.92;;;7.30;99.90;;;;;;2053418;28;20238;-65
2024/02/08 05:54:36;;;;;;;2.53;1.93;;;7.40;99.90;;;;;;2053334;28;20249;-66
2024/02/08 05:55:40;;;;;;;0.93;0.73;;;7.40;99.90;;;;;;2054910;28;20473;-66
2024/02/08 05:56:43;;;;;;;3.63;2.50;;;7.40;99.90;;;;;;2059261;28;20230;-66
2024/02/08 05:57:44;;;;;;;2.20;1.42;;;7.40;99.90;;;;;;2061133;28;20289;-66
2024/02/08 05:58:45;;;;;;;3.40;2.60;;;7.30;99.90;;;;;;2061050;28;20295;-66
2024/02/08 05:59:45;;;;;;;3.30;1.83;;;7.30;99.90;;;;;;2061212;28;20229;-66
2024/02/08 06:00:52;;;;;;;0.73;0.60;;;7.30;99.90;;;;;;2059747;28;20279;-67
2024/02/08 06:01:54;;;;;;;0.82;0.75;;;7.40;99.90;;;;;;2061788;28;20241;-66
2024/02/08 06:02:57;;;;;;;2.33;1.83;;;7.30;99.90;;;;;;2061430;28;20709;-66
2024/02/08 06:04:02;;;;;;;2.08;1.55;;;7.30;99.90;;;;;;2058337;28;20790;-64
2024/02/08 06:05:09;;;;;;;3.88;2.67;;;7.40;99.90;;;;;;2048064;28;20704;-65
2024/02/08 06:06:16;;;;;;;5.30;3.05;;;7.40;99.90;;;;;;2063512;28;20277;-65
2024/02/08 06:07:18;;;;;;;2.05;1.50;;;7.40;99.90;;;;;;2058415;28;20185;-65
2024/02/08 06:08:25;;;;;;;2.72;2.13;;;7.40;99.90;;;;;;2061514;28;20261;-66
2024/02/08 06:10:55;;;;;;;6.65;4.53;;;7.40;99.90;;;;;;2056779;28;20242;-64
2024/02/08 06:12:08;;;;;;;2.27;1.80;;;7.40;99.90;;;;;;2061663;28;20242;-65
2024/02/08 06:13:15;;;;;;;1.25;1.00;;;7.40;99.90;;;;;;2059683;28;20241;-66
2024/02/08 06:14:22;;;;;;;3.80;2.67;;;7.40;99.90;;;;;;2060968;28;20195;-65
2024/02/08 06:15:24;;;;;;;4.90;3.22;;;7.40;99.90;;;;;;2069285;28;20670;-66
2024/02/08 06:16:26;;;;;;;2.00;1.27;;;7.40;99.90;;;;;;2059304;28;20313;-66
2024/02/08 06:17:33;;;;;;;2.97;1.90;;;7.40;99.90;;;;;;2050983;28;20226;-66
2024/02/08 06:18:35;;;;;;;5.85;3.53;;;7.40;99.90;;;;;;2049224;28;20222;-65